Time;durP1;ratioP1;P1;durP2;ratioP2;P2;SDS_P1;SDS_P2;PMS_P1;PMS_P2;Temp;Humidity;BMP_temperature;BMP_pressure;BME280_temperature;BME280_humidity;BME280_pressure;Samples;Min_cycle;Max_cycle;Signal;HPM_P1;HPM_P2
2022/05/20 00:02:02;;;;;;;;;;;;;;;;;;4975407;28;19926;-74
2022/05/20 00:04:28;;;;;;;;;;;;;;;;;;4974940;28;19922;-75
2022/05/20 00:06:54;;;;;;;;;;;;;;;;;;4973320;28;19922;-74
2022/05/20 00:09:20;;;;;;;;;;;;;;;;;;4974970;28;19977;-75
2022/05/20 00:11:45;;;;;;;;;;;;;;;;;;4975421;28;20290;-74
2022/05/20 00:14:11;;;;;;;;;;;;;;;;;;4974107;28;19925;-76
2022/05/20 00:16:39;;;;;;;;;;;;;;;;;;4975676;28;19922;-76
2022/05/20 00:19:05;;;;;;;;;;;;;;;;;;4975452;28;20387;-73
2022/05/20 00:21:31;;;;;;;;;;;;;;;;;;4957694;28;19989;-75
2022/05/20 00:23:57;;;;;;;;;;;;;;;;;;4974672;28;19929;-74
2022/05/20 00:26:23;;;;;;;;;;;;;;;;;;4974311;28;20312;-74
2022/05/20 00:28:49;;;;;;;;;;;;;;;;;;4957331;28;19931;-74
2022/05/20 00:31:15;;;;;;;;;;;;;;;;;;4957374;28;20365;-75
2022/05/20 00:33:41;;;;;;;;;;;;;;;;;;4974476;28;19922;-75
2022/05/20 00:36:06;;;;;;;;;;;;;;;;;;4975303;28;19922;-73
2022/05/20 00:38:32;;;;;;;;;;;;;;;;;;4974308;28;19922;-74
2022/05/20 00:40:58;;;;;;;;;;;;;;;;;;4975026;28;19976;-74
2022/05/20 00:43:24;;;;;;;;;;;;;;;;;;4957312;28;20012;-76
2022/05/20 00:45:50;;;;;;;;;;;;;;;;;;4957755;28;20437;-75
2022/05/20 00:48:16;;;;;;;;;;;;;;;;;;4973997;28;20338;-76
2022/05/20 00:50:42;;;;;;;;;;;;;;;;;;4974934;28;20293;-75
2022/05/20 00:53:08;;;;;;;;;;;;;;;;;;4941584;28;19929;-75
2022/05/20 00:55:34;;;;;;;;;;;;;;;;;;4956435;28;20169;-77
2022/05/20 00:58:00;;;;;;;;;;;;;;;;;;4957241;28;20354;-75
2022/05/20 01:00:26;;;;;;;;;;;;;;;;;;4956355;28;19922;-75
2022/05/20 01:02:52;;;;;;;;;;;;;;;;;;4974238;28;19982;-73
2022/05/20 01:05:18;;;;;;;;;;;;;;;;;;4956718;28;19926;-76
2022/05/20 01:07:44;;;;;;;;;;;;;;;;;;4974240;28;19928;-75
2022/05/20 01:10:10;;;;;;;;;;;;;;;;;;4974146;28;20008;-75
2022/05/20 01:12:36;;;;;;;;;;;;;;;;;;4973883;28;20136;-74
2022/05/20 01:15:02;;;;;;;;;;;;;;;;;;4973444;28;20000;-74
2022/05/20 01:17:28;;;;;;;;;;;;;;;;;;4974582;28;19922;-74
2022/05/20 01:19:54;;;;;;;;;;;;;;;;;;4973921;28;19922;-76
2022/05/20 01:22:20;;;;;;;;;;;;;;;;;;4956731;28;19922;-75
2022/05/20 01:24:46;;;;;;;;;;;;;;;;;;4973644;28;19973;-74
2022/05/20 01:27:12;;;;;;;;;;;;;;;;;;4973791;28;19933;-74
2022/05/20 01:29:38;;;;;;;;;;;;;;;;;;4973812;28;19922;-75
2022/05/20 01:32:04;;;;;;;;;;;;;;;;;;4973925;28;20031;-75
2022/05/20 01:34:30;;;;;;;;;;;;;;;;;;4973488;28;19985;-74
2022/05/20 01:36:56;;;;;;;;;;;;;;;;;;4939696;28;19922;-75
2022/05/20 01:39:21;;;;;;;;;;;;;;;;;;4956815;28;19945;-75
2022/05/20 01:41:47;;;;;;;;;;;;;;;;;;4973661;28;19957;-76
2022/05/20 01:44:13;;;;;;;;;;;;;;;;;;4973781;28;19929;-75
2022/05/20 01:46:39;;;;;;;;;;;;;;;;;;4972056;28;20385;-74
2022/05/20 01:49:05;;;;;;;;;;;;;;;;;;4973600;28;20408;-74
2022/05/20 01:51:31;;;;;;;;;;;;;;;;;;4973697;28;19968;-74
2022/05/20 01:53:57;;;;;;;;;;;;;;;;;;4974148;28;19922;-74
2022/05/20 01:56:23;;;;;;;;;;;;;;;;;;4972996;28;19968;-77
2022/05/20 01:58:49;;;;;;;;;;;;;;;;;;4972857;28;19922;-73
2022/05/20 02:01:15;;;;;;;;;;;;;;;;;;4973888;28;19922;-76
2022/05/20 02:03:41;;;;;;;;;;;;;;;;;;4955854;28;20049;-74
2022/05/20 02:06:07;;;;;;;;;;;;;;;;;;4955345;28;19973;-75
2022/05/20 02:08:33;;;;;;;;;;;;;;;;;;4973041;28;19929;-74
2022/05/20 02:10:59;;;;;;;;;;;;;;;;;;4973546;28;19929;-74
2022/05/20 02:13:26;;;;;;;;;;;;;;;;;;4955534;28;19926;-76
2022/05/20 02:15:52;;;;;;;;;;;;;;;;;;4955847;28;19930;-74
2022/05/20 02:18:18;;;;;;;;;;;;;;;;;;4973472;28;19929;-74
2022/05/20 02:20:44;;;;;;;;;;;;;;;;;;4972579;28;20017;-75
2022/05/20 02:23:10;;;;;;;;;;;;;;;;;;4956492;28;19922;-74
2022/05/20 02:25:36;;;;;;;;;;;;;;;;;;4972079;28;19922;-75
2022/05/20 02:28:02;;;;;;;;;;;;;;;;;;4954657;28;19932;-74
2022/05/20 02:30:28;;;;;;;;;;;;;;;;;;4955465;28;19929;-75
2022/05/20 02:32:54;;;;;;;;;;;;;;;;;;4955552;28;19945;-75
2022/05/20 02:35:20;;;;;;;;;;;;;;;;;;4972840;28;19922;-74
2022/05/20 02:37:46;;;;;;;;;;;;;;;;;;4972615;28;20022;-76
2022/05/20 02:40:12;;;;;;;;;;;;;;;;;;4956164;28;19926;-74
2022/05/20 02:42:38;;;;;;;;;;;;;;;;;;4955200;28;19961;-74
2022/05/20 02:45:04;;;;;;;;;;;;;;;;;;4955691;28;20060;-74
2022/05/20 02:47:33;;;;;;;;;;;;;;;;;;4972239;28;20278;-74
2022/05/20 02:49:59;;;;;;;;;;;;;;;;;;4955246;28;19922;-75
2022/05/20 02:52:25;;;;;;;;;;;;;;;;;;4972444;28;19949;-74
2022/05/20 02:54:51;;;;;;;;;;;;;;;;;;4972341;28;19922;-74
2022/05/20 02:57:17;;;;;;;;;;;;;;;;;;4939482;28;19968;-75
2022/05/20 03:05:11;;;;;;;;;;;;;;;;;;4971990;28;20058;-74
2022/05/20 03:07:37;;;;;;;;;;;;;;;;;;4954916;28;19934;-75
2022/05/20 03:10:03;;;;;;;;;;;;;;;;;;4954916;28;19928;-74
2022/05/20 03:12:29;;;;;;;;;;;;;;;;;;4954739;28;19968;-76
2022/05/20 03:14:55;;;;;;;;;;;;;;;;;;4971961;28;19922;-74
2022/05/20 03:17:21;;;;;;;;;;;;;;;;;;4972148;28;19929;-75
2022/05/20 03:19:47;;;;;;;;;;;;;;;;;;4955026;28;19928;-76
2022/05/20 03:22:13;;;;;;;;;;;;;;;;;;4955302;28;19929;-74
2022/05/20 03:24:39;;;;;;;;;;;;;;;;;;4972039;28;20495;-75
2022/05/20 03:27:05;;;;;;;;;;;;;;;;;;4954810;28;19929;-74
2022/05/20 03:29:32;;;;;;;;;;;;;;;;;;4954544;28;19922;-77
2022/05/20 03:31:58;;;;;;;;;;;;;;;;;;4955277;28;19929;-74
2022/05/20 03:34:24;;;;;;;;;;;;;;;;;;4955032;28;19922;-76
2022/05/20 03:36:50;;;;;;;;;;;;;;;;;;4971776;28;19926;-76
2022/05/20 03:39:16;;;;;;;;;;;;;;;;;;4972127;28;19922;-74
2022/05/20 03:41:42;;;;;;;;;;;;;;;;;;4971611;28;19926;-75
2022/05/20 03:44:08;;;;;;;;;;;;;;;;;;4954901;28;19969;-74
2022/05/20 03:46:34;;;;;;;;;;;;;;;;;;4972765;28;19977;-76
2022/05/20 03:49:00;;;;;;;;;;;;;;;;;;4940440;28;19922;-75
2022/05/20 03:51:26;;;;;;;;;;;;;;;;;;4956260;28;19955;-72
2022/05/20 03:53:52;;;;;;;;;;;;;;;;;;4955145;28;19926;-75
2022/05/20 03:56:18;;;;;;;;;;;;;;;;;;4956153;28;19929;-74
2022/05/20 03:58:44;;;;;;;;;;;;;;;;;;4972841;28;19922;-75
2022/05/20 04:03:54;;;;;;;;;;;;;;;;;;4955649;28;19944;-74
2022/05/20 04:06:20;;;;;;;;;;;;;;;;;;4972946;28;20309;-74
2022/05/20 04:08:46;;;;;;;;;;;;;;;;;;4972742;28;19970;-75
2022/05/20 04:11:13;;;;;;;;;;;;;;;;;;4955872;28;19933;-75
2022/05/20 04:13:39;;;;;;;;;;;;;;;;;;4971729;28;19929;-75
2022/05/20 04:16:05;;;;;;;;;;;;;;;;;;4955285;28;20247;-75
2022/05/20 04:18:31;;;;;;;;;;;;;;;;;;4954653;28;20035;-74
2022/05/20 04:20:57;;;;;;;;;;;;;;;;;;4971199;28;19945;-74
2022/05/20 04:23:23;;;;;;;;;;;;;;;;;;4938895;28;20278;-75
2022/05/20 04:25:49;;;;;;;;;;;;;;;;;;4971337;28;19929;-76
2022/05/20 04:28:15;;;;;;;;;;;;;;;;;;4954872;28;20009;-74
2022/05/20 04:30:41;;;;;;;;;;;;;;;;;;4957128;28;19922;-77
2022/05/20 04:33:07;;;;;;;;;;;;;;;;;;4958060;28;19922;-74
2022/05/20 04:35:33;;;;;;;;;;;;;;;;;;4976121;28;20389;-75
2022/05/20 04:37:59;;;;;;;;;;;;;;;;;;4958791;28;19976;-75
2022/05/20 04:40:25;;;;;;;;;;;;;;;;;;4958913;28;19937;-74
2022/05/20 04:48:20;;;;;;;;;;;;;;;;;;4974580;28;19922;-74
2022/05/20 04:50:46;;;;;;;;;;;;;;;;;;4974496;28;19921;-75
2022/05/20 04:54:49;;;;;;;;;;;;;;;;;;4957851;28;19926;-75
2022/05/20 04:55:58;;;;;;;;;;;;;;;;;;4957422;28;19953;-78
2022/05/20 04:58:25;;;;;;;;;;;;;;;;;;4958045;28;19922;-76
2022/05/20 05:00:51;;;;;;;;;;;;;;;;;;4956904;28;19929;-76
2022/05/20 05:03:18;;;;;;;;;;;;;;;;;;4958259;28;20354;-76
2022/05/20 05:05:44;;;;;;;;;;;;;;;;;;4956899;28;19972;-77
2022/05/20 05:08:10;;;;;;;;;;;;;;;;;;4956719;28;19926;-76
2022/05/20 05:10:36;;;;;;;;;;;;;;;;;;4941848;28;19921;-75
2022/05/20 05:13:02;;;;;;;;;;;;;;;;;;4941135;28;19932;-76
2022/05/20 05:15:28;;;;;;;;;;;;;;;;;;4956322;28;19972;-76
2022/05/20 05:18:11;;;;;;;;;;;;;;;;;;4956057;28;19921;-77
2022/05/20 05:20:37;;;;;;;;;;;;;;;;;;4957072;28;19922;-76
2022/05/20 05:23:03;;;;;;;;;;;;;;;;;;4956526;28;19926;-75
2022/05/20 05:25:29;;;;;;;;;;;;;;;;;;4957199;28;19921;-76
2022/05/20 05:27:55;;;;;;;;;;;;;;;;;;4956852;28;19926;-74
2022/05/20 05:30:22;;;;;;;;;;;;;;;;;;4957152;28;19922;-74
2022/05/20 05:32:48;;;;;;;;;;;;;;;;;;4957842;28;19921;-74
2022/05/20 05:35:14;;;;;;;;;;;;;;;;;;4958933;28;20432;-75
2022/05/20 05:37:40;;;;;;;;;;;;;;;;;;4958415;28;20391;-75
2022/05/20 05:40:05;;;;;;;;;;;;;;;;;;4975009;28;19922;-73
2022/05/20 05:42:32;;;;;;;;;;;;;;;;;;4958536;28;19922;-74
2022/05/20 05:44:59;;;;;;;;;;;;;;;;;;4957588;28;19921;-75
2022/05/20 05:47:25;;;;;;;;;;;;;;;;;;4957906;28;19990;-75
2022/05/20 05:49:51;;;;;;;;;;;;;;;;;;4942164;28;19922;-74
2022/05/20 05:52:17;;;;;;;;;;;;;;;;;;4958422;28;19928;-76
2022/05/20 05:54:43;;;;;;;;;;;;;;;;;;4956982;28;19922;-78
2022/05/20 05:57:09;;;;;;;;;;;;;;;;;;4957012;28;19922;-77
2022/05/20 05:59:37;;;;;;;;;;;;;;;;;;4941339;28;19981;-77
2022/05/20 06:02:03;;;;;;;;;;;;;;;;;;4957705;28;19973;-76
2022/05/20 06:04:29;;;;;;;;;;;;;;;;;;4958462;28;19969;-76
2022/05/20 06:06:55;;;;;;;;;;;;;;;;;;4957776;28;19926;-76
2022/05/20 06:09:21;;;;;;;;;;;;;;;;;;4957889;28;19928;-76
2022/05/20 06:11:47;;;;;;;;;;;;;;;;;;4957636;28;19953;-78
2022/05/20 06:14:13;;;;;;;;;;;;;;;;;;4958143;28;19977;-76
2022/05/20 06:16:39;;;;;;;;;;;;;;;;;;4958136;28;20012;-76
2022/05/20 06:19:05;;;;;;;;;;;;;;;;;;4957758;28;20344;-75
2022/05/20 06:21:31;;;;;;;;;;;;;;;;;;4957017;28;19922;-75
2022/05/20 06:23:57;;;;;;;;;;;;;;;;;;4957231;28;19976;-76
2022/05/20 06:26:23;;;;;;;;;;;;;;;;;;4958040;28;20279;-75
2022/05/20 06:28:49;;;;;;;;;;;;;;;;;;4957569;28;19921;-79
2022/05/20 06:31:15;;;;;;;;;;;;;;;;;;4957711;28;20401;-76
2022/05/20 06:33:41;;;;;;;;;;;;;;;;;;4956865;28;19928;-76
2022/05/20 06:41:36;;;;;;;;;;;;;;;;;;4957229;28;19922;-75
2022/05/20 06:44:02;;;;;;;;;;;;;;;;;;4957048;28;19926;-76
2022/05/20 06:46:28;;;;;;;;;;;;;;;;;;4940826;28;20065;-76
2022/05/20 06:48:55;;;;;;;;;;;;;;;;;;4940321;28;20004;-76
2022/05/20 06:51:21;;;;;;;;;;;;;;;;;;4940511;28;20350;-75
2022/05/20 06:53:47;;;;;;;;;;;;;;;;;;4941005;28;20016;-78
2022/05/20 06:56:13;;;;;;;;;;;;;;;;;;4940334;28;19922;-77
2022/05/20 06:58:39;;;;;;;;;;;;;;;;;;4957035;28;19929;-78
2022/05/20 07:01:05;;;;;;;;;;;;;;;;;;4973503;28;19922;-75
2022/05/20 07:03:31;;;;;;;;;;;;;;;;;;4956818;28;19922;-76
2022/05/20 07:05:57;;;;;;;;;;;;;;;;;;4973662;28;20020;-76
2022/05/20 07:08:24;;;;;;;;;;;;;;;;;;4956531;28;19925;-76
2022/05/20 07:10:50;;;;;;;;;;;;;;;;;;4957064;28;19922;-76
2022/05/20 07:13:16;;;;;;;;;;;;;;;;;;4956375;28;19929;-77
2022/05/20 07:15:41;;;;;;;;;;;;;;;;;;4956229;28;19922;-76
2022/05/20 07:18:07;;;;;;;;;;;;;;;;;;4956227;28;19926;-75
2022/05/20 07:20:33;;;;;;;;;;;;;;;;;;4956778;28;19976;-75
2022/05/20 07:22:59;;;;;;;;;;;;;;;;;;4955874;28;19922;-76
2022/05/20 07:25:25;;;;;;;;;;;;;;;;;;4956775;28;19922;-76
2022/05/20 07:27:51;;;;;;;;;;;;;;;;;;4956458;28;19922;-76
2022/05/20 07:30:17;;;;;;;;;;;;;;;;;;4940166;28;20357;-76
2022/05/20 07:32:43;;;;;;;;;;;;;;;;;;4956478;28;20475;-75
2022/05/20 07:35:09;;;;;;;;;;;;;;;;;;4956290;28;19922;-75
2022/05/20 07:37:35;;;;;;;;;;;;;;;;;;4956125;28;20012;-76
2022/05/20 07:40:01;;;;;;;;;;;;;;;;;;4955908;28;19969;-75
2022/05/20 07:42:27;;;;;;;;;;;;;;;;;;4940530;28;19922;-75
2022/05/20 07:44:53;;;;;;;;;;;;;;;;;;4956945;28;20000;-76
2022/05/20 07:47:20;;;;;;;;;;;;;;;;;;4956132;28;19918;-76
2022/05/20 07:49:46;;;;;;;;;;;;;;;;;;4956497;28;19922;-75
2022/05/20 07:52:12;;;;;;;;;;;;;;;;;;4956313;28;20012;-74
2022/05/20 07:54:38;;;;;;;;;;;;;;;;;;4956052;28;19929;-75
2022/05/20 07:57:04;;;;;;;;;;;;;;;;;;4956554;28;19922;-75
2022/05/20 07:59:30;;;;;;;;;;;;;;;;;;4956349;28;19922;-75
2022/05/20 08:01:56;;;;;;;;;;;;;;;;;;4956425;28;19922;-78
2022/05/20 08:07:07;;;;;;;;;;;;;;;;;;4960176;28;19976;-75
2022/05/20 08:09:33;;;;;;;;;;;;;;;;;;4960142;28;20016;-75
2022/05/20 08:11:59;;;;;;;;;;;;;;;;;;4943091;28;19922;-75
2022/05/20 08:14:26;;;;;;;;;;;;;;;;;;4976861;28;19922;-81
2022/05/20 08:16:52;;;;;;;;;;;;;;;;;;4959442;28;19933;-76
2022/05/20 08:19:18;;;;;;;;;;;;;;;;;;4959293;28;19921;-76
2022/05/20 08:21:44;;;;;;;;;;;;;;;;;;4959977;28;20005;-76
2022/05/20 08:24:10;;;;;;;;;;;;;;;;;;4958978;28;19973;-75
2022/05/20 08:26:36;;;;;;;;;;;;;;;;;;4977179;28;19922;-77
2022/05/20 08:29:03;;;;;;;;;;;;;;;;;;4959745;28;19926;-76
2022/05/20 08:31:29;;;;;;;;;;;;;;;;;;4960038;28;20388;-76
2022/05/20 08:33:55;;;;;;;;;;;;;;;;;;4959878;28;19926;-76
2022/05/20 08:36:21;;;;;;;;;;;;;;;;;;4943673;28;20322;-76
2022/05/20 08:38:47;;;;;;;;;;;;;;;;;;4977042;28;20255;-76
2022/05/20 08:41:13;;;;;;;;;;;;;;;;;;4959782;28;20407;-76
2022/05/20 08:43:39;;;;;;;;;;;;;;;;;;4959687;28;20012;-76
2022/05/20 08:46:05;;;;;;;;;;;;;;;;;;4958121;28;20020;-76
2022/05/20 08:48:31;;;;;;;;;;;;;;;;;;4958522;28;19922;-76
2022/05/20 08:50:57;;;;;;;;;;;;;;;;;;4976681;28;19929;-76
2022/05/20 08:53:23;;;;;;;;;;;;;;;;;;4959352;28;19983;-76
2022/05/20 08:55:49;;;;;;;;;;;;;;;;;;4959633;28;19929;-76
2022/05/20 08:58:15;;;;;;;;;;;;;;;;;;4959215;28;20031;-76
2022/05/20 09:00:41;;;;;;;;;;;;;;;;;;4959305;28;19934;-76
2022/05/20 09:03:08;;;;;;;;;;;;;;;;;;4943005;28;20016;-76
2022/05/20 09:05:34;;;;;;;;;;;;;;;;;;4959664;28;20373;-77
2022/05/20 09:08:00;;;;;;;;;;;;;;;;;;4958868;28;19976;-76
2022/05/20 09:10:26;;;;;;;;;;;;;;;;;;4943463;28;19961;-76
2022/05/20 09:12:52;;;;;;;;;;;;;;;;;;4959023;28;20396;-76
2022/05/20 09:18:03;;;;;;;;;;;;;;;;;;4958739;28;19926;-77
2022/05/20 09:20:29;;;;;;;;;;;;;;;;;;4959028;28;19929;-76
2022/05/20 09:22:55;;;;;;;;;;;;;;;;;;4959056;28;19922;-76
2022/05/20 09:25:21;;;;;;;;;;;;;;;;;;4958796;28;19922;-76
2022/05/20 09:27:47;;;;;;;;;;;;;;;;;;4958695;28;19922;-76
2022/05/20 09:30:13;;;;;;;;;;;;;;;;;;4957282;28;20012;-77
2022/05/20 09:32:39;;;;;;;;;;;;;;;;;;4975268;28;20016;-76
2022/05/20 09:35:05;;;;;;;;;;;;;;;;;;4958459;28;19922;-82
2022/05/20 09:37:31;;;;;;;;;;;;;;;;;;4959037;28;19930;-76
2022/05/20 09:39:57;;;;;;;;;;;;;;;;;;4957413;28;20282;-79
2022/05/20 09:42:23;;;;;;;;;;;;;;;;;;4958178;28;19921;-82
2022/05/20 09:44:49;;;;;;;;;;;;;;;;;;4943109;28;19929;-81
2022/05/20 09:47:15;;;;;;;;;;;;;;;;;;4941556;28;19922;-80
2022/05/20 09:49:42;;;;;;;;;;;;;;;;;;4958746;28;20008;-80
2022/05/20 09:52:08;;;;;;;;;;;;;;;;;;4942486;28;19926;-79
2022/05/20 09:54:34;;;;;;;;;;;;;;;;;;4958164;28;20282;-79
2022/05/20 09:57:00;;;;;;;;;;;;;;;;;;4942235;28;19921;-80
2022/05/20 09:59:26;;;;;;;;;;;;;;;;;;4942145;28;20191;-78
2022/05/20 10:01:52;;;;;;;;;;;;;;;;;;4958439;28;19926;-77
2022/05/20 10:04:18;;;;;;;;;;;;;;;;;;4957552;28;19922;-76
2022/05/20 10:06:44;;;;;;;;;;;;;;;;;;4958103;28;20008;-76
2022/05/20 10:09:09;;;;;;;;;;;;;;;;;;4941778;28;19922;-77
2022/05/20 10:11:35;;;;;;;;;;;;;;;;;;4942008;28;19922;-77
2022/05/20 10:14:01;;;;;;;;;;;;;;;;;;4942144;28;19922;-77
2022/05/20 10:16:27;;;;;;;;;;;;;;;;;;4957161;28;19929;-78
2022/05/20 10:18:53;;;;;;;;;;;;;;;;;;4941529;28;19922;-78
2022/05/20 10:21:19;;;;;;;;;;;;;;;;;;4958194;28;20358;-77
2022/05/20 10:23:45;;;;;;;;;;;;;;;;;;4941790;28;19922;-76
2022/05/20 10:26:11;;;;;;;;;;;;;;;;;;4957206;28;20004;-76
2022/05/20 10:34:07;;;;;;;;;;;;;;;;;;4957808;28;20369;-76
2022/05/20 10:36:33;;;;;;;;;;;;;;;;;;4957720;28;19926;-75
2022/05/20 10:38:59;;;;;;;;;;;;;;;;;;4957760;28;19926;-76
2022/05/20 10:41:25;;;;;;;;;;;;;;;;;;4941339;28;19929;-76
2022/05/20 10:49:21;;;;;;;;;;;;;;;;;;4957045;28;19944;-77
2022/05/20 10:51:47;;;;;;;;;;;;;;;;;;4957003;28;19922;-75
2022/05/20 10:54:13;;;;;;;;;;;;;;;;;;4957442;28;19933;-77
2022/05/20 10:56:42;;;;;;;;;;;;;;;;;;4957506;28;20347;-77
2022/05/20 10:59:07;;;;;;;;;;;;;;;;;;4957509;28;19922;-77
2022/05/20 11:01:33;;;;;;;;;;;;;;;;;;4957178;28;20341;-77
2022/05/20 11:03:59;;;;;;;;;;;;;;;;;;4941483;28;19922;-76
2022/05/20 11:06:25;;;;;;;;;;;;;;;;;;4957192;28;19949;-77
2022/05/20 11:08:52;;;;;;;;;;;;;;;;;;4957312;28;19926;-76
2022/05/20 11:11:18;;;;;;;;;;;;;;;;;;4940569;28;19985;-77
2022/05/20 11:13:45;;;;;;;;;;;;;;;;;;4956645;28;19929;-77
2022/05/20 11:16:11;;;;;;;;;;;;;;;;;;4956757;28;20420;-79
2022/05/20 11:18:37;;;;;;;;;;;;;;;;;;4957460;28;19969;-77
2022/05/20 11:21:03;;;;;;;;;;;;;;;;;;4957376;28;19968;-76
2022/05/20 11:23:29;;;;;;;;;;;;;;;;;;4940816;28;19929;-79
2022/05/20 11:25:55;;;;;;;;;;;;;;;;;;4957176;28;19922;-77
2022/05/20 11:28:21;;;;;;;;;;;;;;;;;;4956189;28;19922;-76
2022/05/20 11:30:47;;;;;;;;;;;;;;;;;;4956785;28;20358;-77
2022/05/20 11:33:13;;;;;;;;;;;;;;;;;;4973483;28;19922;-78
2022/05/20 11:35:39;;;;;;;;;;;;;;;;;;4940076;28;19928;-77
2022/05/20 11:38:05;;;;;;;;;;;;;;;;;;4957932;28;20281;-77
2022/05/20 11:40:31;;;;;;;;;;;;;;;;;;4960448;28;19922;-77
2022/05/20 11:42:57;;;;;;;;;;;;;;;;;;4944629;28;19922;-77
2022/05/20 11:45:23;;;;;;;;;;;;;;;;;;4960755;28;19925;-77
2022/05/20 11:47:49;;;;;;;;;;;;;;;;;;4960118;28;19922;-76
2022/05/20 11:50:16;;;;;;;;;;;;;;;;;;4960125;28;19922;-76
2022/05/20 11:52:42;;;;;;;;;;;;;;;;;;4959768;28;20578;-76
2022/05/20 11:55:08;;;;;;;;;;;;;;;;;;4960011;28;19922;-78
2022/05/20 11:57:35;;;;;;;;;;;;;;;;;;4959971;28;19922;-77
2022/05/20 12:00:02;;;;;;;;;;;;;;;;;;4960509;28;20017;-76
2022/05/20 12:02:28;;;;;;;;;;;;;;;;;;4944512;28;19926;-77
2022/05/20 12:04:54;;;;;;;;;;;;;;;;;;4960563;28;20033;-77
2022/05/20 12:07:20;;;;;;;;;;;;;;;;;;4960189;28;19929;-77
2022/05/20 12:09:46;;;;;;;;;;;;;;;;;;4959819;28;19929;-76
2022/05/20 12:12:12;;;;;;;;;;;;;;;;;;4958666;28;19941;-76
2022/05/20 12:14:38;;;;;;;;;;;;;;;;;;4943685;28;19925;-76
2022/05/20 12:17:04;;;;;;;;;;;;;;;;;;4960220;28;19922;-76
2022/05/20 12:25:00;;;;;;;;;;;;;;;;;;4959205;28;20001;-77
2022/05/20 12:27:26;;;;;;;;;;;;;;;;;;4959745;28;19929;-76
2022/05/20 12:29:51;;;;;;;;;;;;;;;;;;4959050;28;20285;-76
2022/05/20 12:32:17;;;;;;;;;;;;;;;;;;4975892;28;20039;-78
2022/05/20 12:34:45;;;;;;;;;;;;;;;;;;4976531;28;19945;-78
2022/05/20 12:37:11;;;;;;;;;;;;;;;;;;4959922;28;20364;-75
2022/05/20 12:39:37;;;;;;;;;;;;;;;;;;4959526;28;20005;-76
2022/05/20 12:42:02;;;;;;;;;;;;;;;;;;4959174;28;19926;-77
2022/05/20 12:44:31;;;;;;;;;;;;;;;;;;4959107;28;19926;-78
2022/05/20 12:46:57;;;;;;;;;;;;;;;;;;4959415;28;20009;-76
2022/05/20 12:49:23;;;;;;;;;;;;;;;;;;4957337;28;19922;-77
2022/05/20 12:51:49;;;;;;;;;;;;;;;;;;4959205;28;20289;-76
2022/05/20 12:54:15;;;;;;;;;;;;;;;;;;4976833;28;19922;-76
2022/05/20 12:56:41;;;;;;;;;;;;;;;;;;4976428;28;20365;-76
2022/05/20 12:59:07;;;;;;;;;;;;;;;;;;4958851;28;20113;-74
2022/05/20 13:01:33;;;;;;;;;;;;;;;;;;4976261;28;19922;-76
2022/05/20 13:03:59;;;;;;;;;;;;;;;;;;4943696;28;20012;-77
2022/05/20 13:06:25;;;;;;;;;;;;;;;;;;4958828;28;19922;-77
2022/05/20 13:08:51;;;;;;;;;;;;;;;;;;4976108;28;19929;-78
2022/05/20 13:11:17;;;;;;;;;;;;;;;;;;4959137;28;20020;-76
2022/05/20 13:13:43;;;;;;;;;;;;;;;;;;4975698;28;19926;-75
2022/05/20 13:16:09;;;;;;;;;;;;;;;;;;4959008;28;20389;-75
2022/05/20 13:18:35;;;;;;;;;;;;;;;;;;4958177;28;20259;-75
2022/05/20 13:21:01;;;;;;;;;;;;;;;;;;4975706;28;20297;-75
2022/05/20 13:23:27;;;;;;;;;;;;;;;;;;4958034;28;20021;-76
2022/05/20 13:25:52;;;;;;;;;;;;;;;;;;4958641;28;19926;-76
2022/05/20 13:28:18;;;;;;;;;;;;;;;;;;4958404;28;19923;-75
2022/05/20 13:30:44;;;;;;;;;;;;;;;;;;4958721;28;19922;-76
2022/05/20 13:33:10;;;;;;;;;;;;;;;;;;4975905;28;19980;-76
2022/05/20 13:35:36;;;;;;;;;;;;;;;;;;4975473;28;19930;-76
2022/05/20 13:38:02;;;;;;;;;;;;;;;;;;4957893;28;19980;-77
2022/05/20 13:40:28;;;;;;;;;;;;;;;;;;4942228;28;19922;-76
2022/05/20 13:42:54;;;;;;;;;;;;;;;;;;4975331;28;19922;-75
2022/05/20 13:45:20;;;;;;;;;;;;;;;;;;4958499;28;19928;-75
2022/05/20 13:50:31;;;;;;;;;;;;;;;;;;4957945;28;20385;-75
2022/05/20 13:52:57;;;;;;;;;;;;;;;;;;4975267;28;19964;-75
2022/05/20 13:55:23;;;;;;;;;;;;;;;;;;4975101;28;19933;-75
2022/05/20 13:57:49;;;;;;;;;;;;;;;;;;4975277;28;19922;-76
2022/05/20 14:00:15;;;;;;;;;;;;;;;;;;4975140;28;19922;-75
2022/05/20 14:02:41;;;;;;;;;;;;;;;;;;4955968;28;19922;-75
2022/05/20 14:05:07;;;;;;;;;;;;;;;;;;4956743;28;19922;-76
2022/05/20 14:07:33;;;;;;;;;;;;;;;;;;4954334;28;19926;-76
2022/05/20 14:09:59;;;;;;;;;;;;;;;;;;4956452;28;19928;-76
2022/05/20 14:12:26;;;;;;;;;;;;;;;;;;4955518;28;19928;-76
2022/05/20 14:14:52;;;;;;;;;;;;;;;;;;4956049;28;19925;-77
2022/05/20 14:17:18;;;;;;;;;;;;;;;;;;4956967;28;19973;-76
2022/05/20 14:19:45;;;;;;;;;;;;;;;;;;4955890;28;19922;-78
2022/05/20 14:22:11;;;;;;;;;;;;;;;;;;4956665;28;19969;-77
2022/05/20 14:24:37;;;;;;;;;;;;;;;;;;4973801;28;19926;-77
2022/05/20 14:27:03;;;;;;;;;;;;;;;;;;4940622;28;19926;-78
2022/05/20 14:29:29;;;;;;;;;;;;;;;;;;4955355;28;19922;-80
2022/05/20 14:31:55;;;;;;;;;;;;;;;;;;4956425;28;19922;-78
2022/05/20 14:34:21;;;;;;;;;;;;;;;;;;4956539;28;19929;-78
2022/05/20 14:36:47;;;;;;;;;;;;;;;;;;4972858;28;19922;-76
2022/05/20 14:39:13;;;;;;;;;;;;;;;;;;4973344;28;19929;-76
2022/05/20 14:41:41;;;;;;;;;;;;;;;;;;4956175;28;19922;-78
2022/05/20 14:44:08;;;;;;;;;;;;;;;;;;4955829;28;20376;-78
2022/05/20 14:49:19;;;;;;;;;;;;;;;;;;4956211;28;19933;-78
2022/05/20 14:51:45;;;;;;;;;;;;;;;;;;4956050;28;19977;-77
2022/05/20 14:54:11;;;;;;;;;;;;;;;;;;4971725;28;19980;-78
2022/05/20 14:56:37;;;;;;;;;;;;;;;;;;4953900;28;19929;-80
2022/05/20 14:59:03;;;;;;;;;;;;;;;;;;4955411;28;19926;-77
2022/05/20 15:01:29;;;;;;;;;;;;;;;;;;4955825;28;19945;-81
2022/05/20 15:03:55;;;;;;;;;;;;;;;;;;4955820;28;19922;-82
2022/05/20 15:06:21;;;;;;;;;;;;;;;;;;4939978;28;19969;-82
2022/05/20 15:08:47;;;;;;;;;;;;;;;;;;4955888;28;19922;-81
2022/05/20 15:11:13;;;;;;;;;;;;;;;;;;4938582;28;20480;-81
2022/05/20 15:13:39;;;;;;;;;;;;;;;;;;4937573;28;19922;-81
2022/05/20 15:16:05;;;;;;;;;;;;;;;;;;4938345;28;20289;-80
2022/05/20 15:18:31;;;;;;;;;;;;;;;;;;4955073;28;19972;-79
2022/05/20 15:20:57;;;;;;;;;;;;;;;;;;4955360;28;19922;-82
2022/05/20 15:23:25;;;;;;;;;;;;;;;;;;4955923;28;19977;-86
2022/05/20 15:25:52;;;;;;;;;;;;;;;;;;4939825;28;20016;-80
2022/05/20 15:36:32;;;;;;;;;;;;;;;;;;4954257;28;19977;-80
2022/05/20 15:38:58;;;;;;;;;;;;;;;;;;4954661;28;19921;-79
2022/05/20 15:41:24;;;;;;;;;;;;;;;;;;4938667;28;19980;-80
2022/05/20 15:43:50;;;;;;;;;;;;;;;;;;4954094;28;19958;-78
2022/05/20 15:46:16;;;;;;;;;;;;;;;;;;4954929;28;20009;-79
2022/05/20 15:48:42;;;;;;;;;;;;;;;;;;4953750;28;20431;-79
2022/05/20 15:51:08;;;;;;;;;;;;;;;;;;4938569;28;19922;-79
2022/05/20 15:53:34;;;;;;;;;;;;;;;;;;4937408;28;19922;-79
2022/05/20 15:56:00;;;;;;;;;;;;;;;;;;4953638;28;19968;-79
2022/05/20 15:58:29;;;;;;;;;;;;;;;;;;4954659;28;19975;-81
2022/05/20 16:00:54;;;;;;;;;;;;;;;;;;4954402;28;20003;-77
2022/05/20 16:03:22;;;;;;;;;;;;;;;;;;4955216;28;19922;-78
2022/05/20 16:05:48;;;;;;;;;;;;;;;;;;4955458;28;19972;-75
2022/05/20 16:08:14;;;;;;;;;;;;;;;;;;4954234;28;20026;-78
2022/05/20 16:10:40;;;;;;;;;;;;;;;;;;4937775;28;19933;-87
2022/05/20 16:13:06;;;;;;;;;;;;;;;;;;4938134;28;19930;-79
2022/05/20 16:15:32;;;;;;;;;;;;;;;;;;4954452;28;19929;-77
2022/05/20 16:17:58;;;;;;;;;;;;;;;;;;4954115;28;20274;-79
2022/05/20 16:20:24;;;;;;;;;;;;;;;;;;4953758;28;19922;-75
2022/05/20 16:22:51;;;;;;;;;;;;;;;;;;4953920;28;20320;-79
2022/05/20 16:25:17;;;;;;;;;;;;;;;;;;4952515;28;20008;-77
2022/05/20 16:27:43;;;;;;;;;;;;;;;;;;4956832;28;20372;-76
2022/05/20 16:30:09;;;;;;;;;;;;;;;;;;4957197;28;19930;-78
2022/05/20 16:32:35;;;;;;;;;;;;;;;;;;4957760;28;19922;-79
2022/05/20 16:35:01;;;;;;;;;;;;;;;;;;4941642;28;20027;-77
2022/05/20 16:37:26;;;;;;;;;;;;;;;;;;4941164;28;20421;-77
2022/05/20 16:39:53;;;;;;;;;;;;;;;;;;4957585;28;20289;-77
2022/05/20 16:42:19;;;;;;;;;;;;;;;;;;4956879;28;19922;-79
2022/05/20 16:44:45;;;;;;;;;;;;;;;;;;4941320;28;19971;-78
2022/05/20 16:47:11;;;;;;;;;;;;;;;;;;4940317;28;19926;-78
2022/05/20 16:49:37;;;;;;;;;;;;;;;;;;4957240;28;19922;-83
2022/05/20 16:52:05;;;;;;;;;;;;;;;;;;4956820;28;19922;-81
2022/05/20 16:54:31;;;;;;;;;;;;;;;;;;4956660;28;19922;-78
2022/05/20 17:02:26;;;;;;;;;;;;;;;;;;4957262;28;19922;-74
2022/05/20 17:04:52;;;;;;;;;;;;;;;;;;4975512;28;20005;-75
2022/05/20 17:07:18;;;;;;;;;;;;;;;;;;4958351;28;20056;-74
2022/05/20 17:09:44;;;;;;;;;;;;;;;;;;4974708;28;19922;-74
2022/05/20 17:12:10;;;;;;;;;;;;;;;;;;4974311;28;20412;-75
2022/05/20 17:14:36;;;;;;;;;;;;;;;;;;4958185;28;20377;-77
2022/05/20 17:17:02;;;;;;;;;;;;;;;;;;4957183;28;19928;-75
2022/05/20 17:19:28;;;;;;;;;;;;;;;;;;4958522;28;19921;-74
2022/05/20 17:24:39;;;;;;;;;;;;;;;;;;4974962;28;20286;-74
2022/05/20 17:27:05;;;;;;;;;;;;;;;;;;4957595;28;19928;-75
2022/05/20 17:29:30;;;;;;;;;;;;;;;;;;4958558;28;20321;-74
2022/05/20 17:31:56;;;;;;;;;;;;;;;;;;4975306;28;19922;-74
2022/05/20 17:34:22;;;;;;;;;;;;;;;;;;4957869;28;19926;-73
2022/05/20 17:36:48;;;;;;;;;;;;;;;;;;4956184;28;20342;-74
2022/05/20 17:39:14;;;;;;;;;;;;;;;;;;4974813;28;19922;-72
2022/05/20 17:41:40;;;;;;;;;;;;;;;;;;4974992;28;19926;-74